Time;durP1;ratioP1;P1;durP2;ratioP2;P2;SDS_P1;SDS_P2;PMS_P1;PMS_P2;Temp;Humidity;BMP_temperature;BMP_pressure;BME280_temperature;BME280_humidity;BME280_pressure;Samples;Min_cycle;Max_cycle;Signal;HPM_P1;HPM_P2
2023/01/13 00:00:58;;;;;;;9.55;2.20;;;;;14.70;100107.00;;;;5055516;28;20196;-77
2023/01/13 00:03:25;;;;;;;12.95;2.42;;;;;14.60;100107.00;;;;5056062;28;20203;-77
2023/01/13 00:05:53;;;;;;;12.20;2.08;;;;;14.60;100112.00;;;;5053702;28;20546;-77
2023/01/13 00:08:21;;;;;;;16.80;2.35;;;;;14.50;100108.00;;;;5059913;28;20207;-77
2023/01/13 00:10:48;;;;;;;10.05;2.10;;;;;14.50;100108.00;;;;5060367;28;20203;-78
2023/01/13 00:13:16;;;;;;;10.50;1.70;;;;;14.40;100096.00;;;;5061037;28;20226;-77
2023/01/13 00:15:43;;;;;;;9.18;1.65;;;;;14.40;100089.00;;;;5048385;28;20207;-77
2023/01/13 00:18:10;;;;;;;14.43;2.28;;;;;14.40;100094.00;;;;5048831;28;20588;-77
2023/01/13 00:20:38;;;;;;;9.30;1.95;;;;;14.30;100089.00;;;;5048620;28;20191;-76
2023/01/13 00:23:05;;;;;;;11.25;1.90;;;;;14.30;100083.00;;;;5049392;28;20214;-76
2023/01/13 00:25:33;;;;;;;11.50;1.67;;;;;14.30;100085.00;;;;5047975;28;20581;-77
2023/01/13 00:28:01;;;;;;;9.52;1.85;;;;;14.20;100083.00;;;;5050598;28;20207;-76
2023/01/13 00:30:28;;;;;;;11.00;2.25;;;;;14.20;100094.00;;;;5047757;28;20196;-77
2023/01/13 00:32:55;;;;;;;11.30;2.50;;;;;14.10;100103.00;;;;5051533;28;20503;-76
2023/01/13 00:35:22;;;;;;;13.27;2.25;;;;;14.10;100089.00;;;;5056188;28;20202;-78
2023/01/13 00:37:50;;;;;;;5.75;1.48;;;;;14.10;100108.00;;;;5048394;28;20231;-77
2023/01/13 00:40:17;;;;;;;9.85;1.90;;;;;14.10;100112.00;;;;5066266;28;20574;-77
2023/01/13 00:45:37;;;;;;;11.73;2.55;;;;;14.00;100104.00;;;;5037534;28;20226;-77
2023/01/13 00:48:05;;;;;;;11.30;2.10;;;;;14.00;100097.00;;;;5056424;28;20209;-77
2023/01/13 00:50:32;;;;;;;8.00;2.63;;;;;14.00;100096.00;;;;5067810;28;20203;-77
2023/01/13 00:53:00;;;;;;;12.15;2.63;;;;;14.00;100086.00;;;;5060697;28;20230;-77
2023/01/13 00:55:29;;;;;;;11.93;1.77;;;;;14.00;100081.00;;;;5047671;28;20243;-77
2023/01/13 00:58:02;;;;;;;9.10;2.05;;;;;14.00;100079.00;;;;5054178;28;20205;-77
2023/01/13 01:00:29;;;;;;;11.63;2.00;;;;;14.00;100076.00;;;;5066657;28;20240;-77
2023/01/13 01:02:56;;;;;;;11.23;2.10;;;;;14.00;100066.00;;;;5048881;28;20201;-77
2023/01/13 01:05:24;;;;;;;9.73;1.90;;;;;14.00;100073.00;;;;5047643;28;20188;-77
2023/01/13 01:07:51;;;;;;;10.10;2.45;;;;;14.00;100080.00;;;;5047968;28;20557;-77
2023/01/13 01:10:19;;;;;;;10.43;1.80;;;;;14.00;100074.00;;;;5051748;28;20204;-77
2023/01/13 01:12:46;;;;;;;12.00;2.55;;;;;14.00;100068.00;;;;5049714;28;20214;-76
2023/01/13 01:15:15;;;;;;;26.20;2.40;;;;;14.00;100063.00;;;;5049795;28;20227;-76
2023/01/13 01:17:42;;;;;;;13.77;2.40;;;;;14.00;100048.00;;;;5049853;28;20203;-76
2023/01/13 01:20:11;;;;;;;8.95;1.92;;;;;14.00;100063.00;;;;5067977;28;20195;-77
2023/01/13 01:22:38;;;;;;;17.38;2.63;;;;;14.00;100055.00;;;;5067213;28;20262;-76
2023/01/13 01:25:06;;;;;;;7.28;1.50;;;;;13.90;100045.00;;;;5049003;28;20207;-77
2023/01/13 01:27:33;;;;;;;13.85;3.05;;;;;13.90;100054.00;;;;5048111;28;20203;-77
2023/01/13 01:30:01;;;;;;;14.30;2.90;;;;;13.90;100056.00;;;;5047762;28;20206;-77
2023/01/13 01:32:29;;;;;;;6.72;2.08;;;;;13.90;100073.00;;;;5048664;28;20192;-77
2023/01/13 01:34:57;;;;;;;14.43;2.13;;;;;13.90;100062.00;;;;5052320;28;20226;-77
2023/01/13 01:37:24;;;;;;;13.77;1.92;;;;;13.90;100068.00;;;;5067037;28;20589;-77
2023/01/13 01:39:51;;;;;;;9.88;2.05;;;;;13.90;100076.00;;;;5051375;28;20198;-77
2023/01/13 01:45:13;;;;;;;17.52;3.03;;;;;13.80;100059.00;;;;5046945;28;20585;-77
2023/01/13 01:47:43;;;;;;;9.43;1.80;;;;;13.90;100060.00;;;;5047691;28;20221;-76
2023/01/13 01:50:11;;;;;;;9.27;2.25;;;;;13.90;100069.00;;;;5048961;28;20187;-77
2023/01/13 01:52:43;;;;;;;10.50;2.58;;;;;13.90;100067.00;;;;5054112;28;20215;-77
2023/01/13 01:55:14;;;;;;;13.75;1.98;;;;;13.90;100073.00;;;;5048053;28;20215;-77
2023/01/13 01:57:45;;;;;;;11.10;2.05;;;;;13.90;100076.00;;;;5047342;28;20515;-77
2023/01/13 02:00:13;;;;;;;8.65;1.90;;;;;13.90;100076.00;;;;5048938;28;20199;-77
2023/01/13 02:02:44;;;;;;;14.95;2.53;;;;;13.90;100073.00;;;;5046846;28;20234;-76
2023/01/13 02:05:12;;;;;;;15.70;2.28;;;;;13.90;100075.00;;;;5068642;28;20202;-77
2023/01/13 02:07:41;;;;;;;14.55;2.63;;;;;13.90;100050.00;;;;5066251;28;20198;-77
2023/01/13 02:10:11;;;;;;;8.77;1.77;;;;;13.90;100054.00;;;;5049517;28;20203;-76
2023/01/13 02:12:40;;;;;;;8.70;1.58;;;;;13.90;100055.00;;;;5046438;28;20196;-76
2023/01/13 02:15:10;;;;;;;13.38;1.98;;;;;13.80;100060.00;;;;5046371;28;20219;-76
2023/01/13 02:17:55;;;;;;;12.95;2.90;;;;;13.80;100063.00;;;;5047522;28;20203;-76
2023/01/13 02:20:48;;;;;;;7.93;2.42;;;;;13.70;100058.00;;;;5046768;28;20188;-77
2023/01/13 02:26:57;;;;;;;11.05;2.38;;;;;13.70;100041.00;;;;5053074;28;20233;-77
2023/01/13 02:32:51;;;;;;;20.58;1.98;;;;;13.70;100023.00;;;;4998844;28;20788;-76
2023/01/13 02:35:24;;;;;;;13.15;3.28;;;;;13.70;100021.00;;;;5049422;28;20226;-76
2023/01/13 02:37:53;;;;;;;11.25;2.25;;;;;13.70;100010.00;;;;5050282;28;20204;-77
2023/01/13 02:40:27;;;;;;;14.80;2.47;;;;;13.70;100004.00;;;;5050229;28;20195;-77
2023/01/13 02:45:52;;;;;;;19.25;3.83;;;;;13.70;100011.00;;;;5049752;28;20234;-77
2023/01/13 02:48:22;;;;;;;7.07;1.60;;;;;13.70;100012.00;;;;5050875;28;20192;-77
2023/01/13 02:50:55;;;;;;;18.73;3.15;;;;;13.80;100004.00;;;;5050385;28;20584;-77
2023/01/13 02:53:27;;;;;;;11.77;2.40;;;;;13.70;100014.00;;;;5051084;28;20207;-76
2023/01/13 02:55:56;;;;;;;13.07;2.45;;;;;13.80;100012.00;;;;5049992;28;20219;-77
2023/01/13 02:58:27;;;;;;;13.95;2.20;;;;;13.80;100022.00;;;;5053036;28;20543;-76
2023/01/13 03:00:56;;;;;;;11.18;2.40;;;;;13.80;100024.00;;;;5064347;28;20688;-77
2023/01/13 03:03:24;;;;;;;10.60;2.35;;;;;13.80;100012.00;;;;5064923;28;20568;-76
2023/01/13 03:05:55;;;;;;;11.68;2.40;;;;;13.80;100014.00;;;;5049623;28;20198;-77
2023/01/13 03:08:41;;;;;;;13.75;2.22;;;;;13.80;100012.00;;;;5052016;28;20210;-76
2023/01/13 03:11:11;;;;;;;13.18;2.20;;;;;13.80;100013.00;;;;5069926;28;20195;-77
2023/01/13 03:13:55;;;;;;;7.82;1.67;;;;;13.80;100018.00;;;;5055271;28;20214;-76
2023/01/13 03:16:30;;;;;;;12.50;2.63;;;;;13.80;100024.00;;;;5049941;28;20210;-77
2023/01/13 03:19:14;;;;;;;13.52;2.60;;;;;13.80;100025.00;;;;5049226;28;20203;-76
2023/01/13 03:21:48;;;;;;;11.77;2.28;;;;;13.80;100021.00;;;;5047836;28;20198;-77
2023/01/13 03:24:20;;;;;;;14.27;2.33;;;;;13.90;100001.00;;;;5051297;28;20210;-76
2023/01/13 03:26:52;;;;;;;15.15;3.08;;;;;13.90;100006.00;;;;5052181;28;20200;-77
2023/01/13 03:29:23;;;;;;;8.48;1.85;;;;;13.90;99985.00;;;;5051753;28;20199;-78
2023/01/13 03:31:57;;;;;;;10.73;2.33;;;;;13.80;100003.00;;;;5049188;28;20200;-76
2023/01/13 03:34:29;;;;;;;11.00;1.85;;;;;13.90;100001.00;;;;5058398;28;20234;-77
2023/01/13 03:37:01;;;;;;;8.68;2.80;;;;;13.80;100007.00;;;;5064428;28;20219;-76
2023/01/13 03:39:32;;;;;;;10.20;2.10;;;;;13.90;99992.00;;;;5057473;28;20210;-77
2023/01/13 03:42:03;;;;;;;8.80;2.25;;;;;13.90;100015.00;;;;5068480;28;20218;-77
2023/01/13 03:44:32;;;;;;;9.55;1.83;;;;;13.90;100029.00;;;;5068911;28;20203;-77
2023/01/13 03:47:11;;;;;;;11.73;2.00;;;;;13.80;100016.00;;;;5065447;28;20642;-77
2023/01/13 03:49:44;;;;;;;8.55;1.67;;;;;13.90;100015.00;;;;5062314;28;20202;-77
2023/01/13 03:52:17;;;;;;;7.45;1.63;;;;;13.90;100017.00;;;;5055022;28;20191;-77
2023/01/13 03:54:49;;;;;;;9.95;1.90;;;;;13.90;100034.00;;;;5069358;28;20214;-77
2023/01/13 03:57:20;;;;;;;8.27;1.67;;;;;13.90;100022.00;;;;5068073;28;20203;-77
2023/01/13 03:59:52;;;;;;;11.85;2.42;;;;;13.90;100010.00;;;;5050432;28;20574;-77
2023/01/13 04:02:29;;;;;;;8.25;1.60;;;;;13.80;100008.00;;;;5049883;28;20196;-77
2023/01/13 04:05:00;;;;;;;12.57;1.90;;;;;13.80;100006.00;;;;5063947;28;20199;-77
2023/01/13 04:07:40;;;;;;;12.95;1.90;;;;;13.80;100007.00;;;;5049761;28;20200;-78
2023/01/13 04:10:09;;;;;;;7.68;1.48;;;;;13.80;100001.00;;;;5064169;28;20290;-78
2023/01/13 04:15:27;;;;;;;8.10;1.40;;;;;13.80;100014.00;;;;5044157;28;20700;-76
2023/01/13 04:18:01;;;;;;;5.82;0.80;;;;;13.70;100007.00;;;;5050091;28;20203;-77
2023/01/13 04:20:28;;;;;;;5.03;0.90;;;;;13.70;100016.00;;;;5048620;28;20190;-76
2023/01/13 04:22:56;;;;;;;5.78;1.48;;;;;13.70;100020.00;;;;5048675;28;20199;-77
2023/01/13 04:25:23;;;;;;;5.10;0.85;;;;;13.70;100019.00;;;;5047831;28;20728;-77
2023/01/13 04:27:50;;;;;;;3.53;0.95;;;;;13.70;100012.00;;;;5052821;28;20841;-77
2023/01/13 04:30:18;;;;;;;5.95;1.30;;;;;13.70;100023.00;;;;5049688;28;20207;-76
2023/01/13 04:32:45;;;;;;;5.85;1.30;;;;;13.60;100019.00;;;;5049575;28;20209;-77
2023/01/13 04:35:13;;;;;;;4.78;1.35;;;;;13.60;100020.00;;;;5049147;28;20764;-77
2023/01/13 04:37:41;;;;;;;2.33;0.50;;;;;13.60;100031.00;;;;5048996;28;20219;-77
2023/01/13 04:40:09;;;;;;;4.63;0.70;;;;;13.60;100019.00;;;;5048111;28;20204;-76
2023/01/13 04:42:36;;;;;;;5.60;1.40;;;;;13.50;100026.00;;;;5049354;28;20213;-77
2023/01/13 04:45:04;;;;;;;4.25;1.00;;;;;13.50;100021.00;;;;5056062;28;20661;-77
2023/01/13 04:47:32;;;;;;;2.65;0.47;;;;;13.50;100029.00;;;;5067381;28;20564;-77
2023/01/13 04:49:59;;;;;;;3.25;0.45;;;;;13.50;100018.00;;;;5053922;28;20207;-76
2023/01/13 04:52:28;;;;;;;5.68;0.70;;;;;13.40;100013.00;;;;5046177;28;20669;-77
2023/01/13 04:54:55;;;;;;;5.35;1.10;;;;;13.40;100023.00;;;;5051639;28;20720;-77
2023/01/13 04:57:22;;;;;;;2.20;0.40;;;;;13.40;100027.00;;;;5047923;28;20195;-77
2023/01/13 04:59:49;;;;;;;5.75;0.85;;;;;13.40;100019.00;;;;5047707;28;20210;-77
2023/01/13 05:02:18;;;;;;;5.28;0.90;;;;;13.40;100028.00;;;;5050368;28;20282;-77
2023/01/13 05:04:46;;;;;;;2.97;0.63;;;;;13.40;100031.00;;;;5064452;28;20662;-76
2023/01/13 05:07:13;;;;;;;7.03;0.60;;;;;13.40;100042.00;;;;5047749;28;20203;-77
2023/01/13 05:09:42;;;;;;;4.35;1.17;;;;;13.40;100034.00;;;;5050691;28;20206;-77
2023/01/13 05:17:40;;;;;;;2.25;0.50;;;;;13.50;100038.00;;;;5061898;28;20288;-76
2023/01/13 05:20:09;;;;;;;2.53;0.73;;;;;13.50;100025.00;;;;5067930;28;20695;-76
2023/01/13 05:25:24;;;;;;;3.22;0.85;;;;;13.60;100027.00;;;;5048292;28;20199;-76
2023/01/13 05:27:53;;;;;;;9.50;1.83;;;;;13.60;100030.00;;;;5051060;28;20203;-77
2023/01/13 05:30:21;;;;;;;6.93;1.83;;;;;13.60;100026.00;;;;5061021;28;20582;-77
2023/01/13 05:32:49;;;;;;;9.65;1.50;;;;;13.70;100022.00;;;;5052516;28;21658;-77
2023/01/13 05:35:17;;;;;;;5.78;1.00;;;;;13.70;100023.00;;;;5056766;28;20226;-76
2023/01/13 05:37:45;;;;;;;6.07;1.10;;;;;13.70;100034.00;;;;5060051;28;20214;-76
2023/01/13 05:43:23;;;;;;;9.75;1.30;;;;;13.60;100029.00;;;;5057451;28;20812;-77
2023/01/13 05:45:53;;;;;;;6.00;1.08;;;;;13.60;100019.00;;;;5051884;28;20318;-76
2023/01/13 05:48:23;;;;;;;9.07;1.00;;;;;13.60;100020.00;;;;5057094;28;20196;-76
2023/01/13 05:50:51;;;;;;;4.00;0.88;;;;;13.60;100023.00;;;;5060479;28;20202;-76
2023/01/13 05:53:18;;;;;;;5.85;1.38;;;;;13.60;100026.00;;;;5067491;28;20194;-77
2023/01/13 05:55:46;;;;;;;5.13;1.17;;;;;13.60;100019.00;;;;5062558;28;20219;-76
2023/01/13 05:58:18;;;;;;;4.35;0.75;;;;;13.50;100030.00;;;;5058761;28;20188;-77
2023/01/13 06:00:45;;;;;;;8.73;0.95;;;;;13.50;100029.00;;;;5059726;28;20203;-77
2023/01/13 06:03:13;;;;;;;4.47;1.27;;;;;13.50;100027.00;;;;5057972;28;20201;-76
2023/01/13 06:05:40;;;;;;;2.50;0.63;;;;;13.50;100025.00;;;;5060890;28;20728;-78
2023/01/13 06:08:08;;;;;;;5.47;1.55;;;;;13.40;100019.00;;;;5059508;28;20203;-77
2023/01/13 06:10:36;;;;;;;8.32;1.60;;;;;13.40;100024.00;;;;5055892;28;20194;-76
2023/01/13 06:13:04;;;;;;;8.35;2.20;;;;;13.40;100024.00;;;;5060312;28;20206;-77
2023/01/13 06:15:32;;;;;;;8.32;1.23;;;;;13.40;100034.00;;;;5051516;28;20218;-76
2023/01/13 06:18:03;;;;;;;3.25;0.98;;;;;13.30;100035.00;;;;5063126;28;20661;-77
2023/01/13 06:20:30;;;;;;;6.75;1.27;;;;;13.30;100041.00;;;;5060205;28;20191;-76
2023/01/13 06:22:58;;;;;;;6.00;1.23;;;;;13.30;100033.00;;;;5064028;28;20688;-77
2023/01/13 06:25:34;;;;;;;7.95;1.10;;;;;13.30;100042.00;;;;5053325;28;20567;-76
2023/01/13 06:28:01;;;;;;;8.30;1.73;;;;;13.30;100045.00;;;;5053743;28;20199;-76
2023/01/13 06:30:35;;;;;;;12.98;1.88;;;;;13.30;100043.00;;;;5060890;28;20191;-76
2023/01/13 06:33:06;;;;;;;12.52;1.55;;;;;13.30;100047.00;;;;5063040;28;20503;-78
2023/01/13 06:35:36;;;;;;;7.60;1.25;;;;;13.40;100039.00;;;;5057323;28;20222;-77
2023/01/13 06:38:07;;;;;;;8.65;1.35;;;;;13.40;100048.00;;;;5057839;28;20200;-77
2023/01/13 06:40:35;;;;;;;8.68;1.88;;;;;13.40;100036.00;;;;5051870;28;20202;-76
2023/01/13 06:43:14;;;;;;;7.18;1.75;;;;;13.40;100037.00;;;;5051051;28;20204;-76
2023/01/13 06:45:46;;;;;;;4.78;1.05;;;;;13.40;100050.00;;;;5059282;28;20218;-75
2023/01/13 06:48:14;;;;;;;7.30;1.42;;;;;13.50;100052.00;;;;5063361;28;20195;-76
2023/01/13 06:50:42;;;;;;;4.20;1.00;;;;;13.50;100056.00;;;;5056768;28;20486;-77
2023/01/13 06:53:09;;;;;;;7.70;1.20;;;;;13.50;100040.00;;;;5050124;28;20199;-76
2023/01/13 06:55:36;;;;;;;7.03;1.25;;;;;13.50;100042.00;;;;5049494;28;20628;-76
2023/01/13 06:58:03;;;;;;;6.55;1.23;;;;;13.60;100045.00;;;;5052069;28;20198;-78
2023/01/13 07:00:34;;;;;;;5.38;1.00;;;;;13.60;100054.00;;;;5056936;28;20192;-75
2023/01/13 07:03:14;;;;;;;4.25;1.00;;;;;13.50;100051.00;;;;5051157;28;20686;-76
2023/01/13 07:05:42;;;;;;;5.75;1.00;;;;;13.60;100044.00;;;;5053192;28;20226;-76
2023/01/13 07:08:10;;;;;;;8.40;1.98;;;;;13.60;100058.00;;;;5060288;28;20581;-76
2023/01/13 07:10:38;;;;;;;8.45;1.45;;;;;13.60;100067.00;;;;5062868;28;20191;-76
2023/01/13 07:15:55;;;;;;;8.65;1.50;;;;;13.60;100046.00;;;;5054938;28;20321;-76
2023/01/13 07:18:26;;;;;;;11.68;2.17;;;;;13.60;100043.00;;;;5055154;28;20188;-77
2023/01/13 07:20:58;;;;;;;11.55;1.92;;;;;13.60;100055.00;;;;5059676;28;20199;-77
2023/01/13 07:23:26;;;;;;;10.60;1.63;;;;;13.60;100037.00;;;;5050522;28;20196;-76
2023/01/13 07:25:56;;;;;;;8.40;1.73;;;;;13.70;100041.00;;;;5052347;28;20203;-76
2023/01/13 07:28:23;;;;;;;8.70;1.40;;;;;13.70;100045.00;;;;5055710;28;20242;-76
2023/01/13 07:30:50;;;;;;;5.32;1.27;;;;;13.70;100057.00;;;;5049644;28;20199;-77
2023/01/13 07:33:18;;;;;;;11.30;1.85;;;;;13.70;100054.00;;;;5064710;28;20195;-76
2023/01/13 07:35:49;;;;;;;7.80;1.50;;;;;13.70;100062.00;;;;5061775;28;20215;-76
2023/01/13 07:38:16;;;;;;;6.28;1.23;;;;;13.70;100066.00;;;;5050262;28;20188;-76
2023/01/13 07:40:43;;;;;;;11.23;1.90;;;;;13.70;100078.00;;;;5051065;28;20218;-76
2023/01/13 07:45:58;;;;;;;8.48;1.42;;;;;13.80;100080.00;;;;5057913;28;20696;-77
2023/01/13 07:48:25;;;;;;;11.23;1.75;;;;;13.80;100070.00;;;;5054476;28;20199;-76
2023/01/13 07:50:54;;;;;;;10.45;2.17;;;;;13.80;100075.00;;;;5049881;28;20677;-76
2023/01/13 07:53:23;;;;;;;6.20;1.65;;;;;13.80;100086.00;;;;5048267;28;20195;-76
2023/01/13 07:55:50;;;;;;;8.07;2.10;;;;;13.80;100094.00;;;;5050831;28;20223;-76
2023/01/13 07:58:18;;;;;;;9.88;2.47;;;;;13.80;100110.00;;;;5058299;28;20210;-77
2023/01/13 08:00:45;;;;;;;8.55;1.60;;;;;13.80;100104.00;;;;5050803;28;20195;-77
2023/01/13 08:03:12;;;;;;;7.80;2.03;;;;;13.80;100113.00;;;;5049147;28;20203;-77
2023/01/13 08:05:40;;;;;;;11.73;1.88;;;;;13.90;100110.00;;;;5051229;28;20191;-76
2023/01/13 08:08:08;;;;;;;10.52;1.92;;;;;13.80;100107.00;;;;5068996;28;20199;-76
2023/01/13 08:10:36;;;;;;;8.07;2.67;;;;;13.90;100099.00;;;;5060823;28;20213;-76
2023/01/13 08:13:18;;;;;;;8.27;1.95;;;;;13.80;100109.00;;;;5047723;28;20223;-76
2023/01/13 08:15:47;;;;;;;8.00;2.00;;;;;13.90;100118.00;;;;5048893;28;20557;-76
2023/01/13 08:18:16;;;;;;;11.80;3.97;;;;;13.90;100109.00;;;;5047565;28;20199;-76
2023/01/13 08:20:43;;;;;;;9.85;2.28;;;;;13.90;100109.00;;;;5061471;28;20206;-76
2023/01/13 08:23:12;;;;;;;9.85;2.53;;;;;13.90;100106.00;;;;5060289;28;20199;-77
2023/01/13 08:25:39;;;;;;;9.18;3.55;;;;;14.00;100114.00;;;;5059366;28;20195;-76
2023/01/13 08:28:06;;;;;;;7.70;2.50;;;;;14.00;100114.00;;;;5051069;28;20200;-76
2023/01/13 08:30:34;;;;;;;10.85;2.08;;;;;14.00;100102.00;;;;5048110;28;20302;-76
2023/01/13 08:33:01;;;;;;;10.63;2.47;;;;;14.00;100114.00;;;;5054707;28;20214;-77
2023/01/13 08:35:28;;;;;;;9.88;1.95;;;;;14.00;100110.00;;;;5046969;28;20195;-79
2023/01/13 08:37:56;;;;;;;8.98;1.75;;;;;14.00;100114.00;;;;5058378;28;20210;-77
2023/01/13 08:40:25;;;;;;;9.73;2.22;;;;;14.00;100097.00;;;;5050046;28;20196;-77
2023/01/13 08:42:54;;;;;;;11.73;1.67;;;;;14.10;100115.00;;;;5052195;28;20207;-77
2023/01/13 08:45:22;;;;;;;10.50;1.98;;;;;14.10;100120.00;;;;5051593;28;20222;-77
2023/01/13 08:47:49;;;;;;;7.55;1.73;;;;;14.10;100124.00;;;;5047918;28;20203;-77
2023/01/13 08:50:17;;;;;;;8.32;1.58;;;;;14.10;100121.00;;;;5048025;28;20207;-77
2023/01/13 08:52:44;;;;;;;9.10;1.98;;;;;14.10;100119.00;;;;5051995;28;20202;-77
2023/01/13 08:55:11;;;;;;;12.63;1.73;;;;;14.10;100126.00;;;;5056835;28;20207;-77
2023/01/13 08:57:41;;;;;;;8.48;2.25;;;;;14.10;100138.00;;;;5058027;28;20420;-78
2023/01/13 09:00:11;;;;;;;7.32;2.28;;;;;14.10;100147.00;;;;5067671;28;20225;-78
2023/01/13 09:02:39;;;;;;;8.82;1.83;;;;;14.10;100148.00;;;;5067400;28;20197;-77
2023/01/13 09:05:07;;;;;;;10.02;2.13;;;;;14.10;100156.00;;;;5062603;28;20200;-78
2023/01/13 09:07:36;;;;;;;11.70;1.42;;;;;14.10;100164.00;;;;5047665;28;20199;-78
2023/01/13 09:10:04;;;;;;;6.32;1.55;;;;;14.10;100175.00;;;;5051619;28;20210;-78
2023/01/13 09:15:18;;;;;;;6.93;1.75;;;;;14.10;100180.00;;;;5062487;28;20210;-78
2023/01/13 09:17:46;;;;;;;10.93;2.15;;;;;14.00;100194.00;;;;5060918;28;20310;-78
2023/01/13 09:20:14;;;;;;;9.02;2.28;;;;;14.00;100183.00;;;;5049925;28;20277;-78
2023/01/13 09:22:41;;;;;;;10.05;2.42;;;;;14.00;100188.00;;;;5048190;28;20218;-78
2023/01/13 09:25:11;;;;;;;8.65;1.85;;;;;14.00;100194.00;;;;5063198;28;20205;-78
2023/01/13 09:27:38;;;;;;;13.52;1.88;;;;;14.00;100181.00;;;;5064794;28;20203;-78
2023/01/13 09:30:07;;;;;;;11.20;1.63;;;;;13.90;100198.00;;;;5059750;28;20203;-78
2023/01/13 09:32:37;;;;;;;6.35;1.50;;;;;13.90;100210.00;;;;5054571;28;20641;-77
2023/01/13 09:35:04;;;;;;;10.48;2.05;;;;;13.90;100192.00;;;;5050001;28;20195;-78
2023/01/13 09:37:34;;;;;;;8.73;1.75;;;;;13.90;100206.00;;;;5060723;28;20705;-77
2023/01/13 09:40:02;;;;;;;6.32;1.35;;;;;13.90;100200.00;;;;5061768;28;20190;-78
2023/01/13 09:45:29;;;;;;;8.07;1.55;;;;;13.80;100213.00;;;;5067219;28;20229;-78
2023/01/13 09:48:03;;;;;;;9.68;1.55;;;;;13.80;100214.00;;;;5055940;28;20207;-78
2023/01/13 09:50:43;;;;;;;5.10;1.48;;;;;13.80;100216.00;;;;5053219;28;20248;-78
2023/01/13 09:53:17;;;;;;;8.98;2.50;;;;;13.80;100210.00;;;;5065085;28;20206;-78
2023/01/13 09:55:45;;;;;;;8.20;1.88;;;;;13.90;100219.00;;;;5061966;28;20207;-77
2023/01/13 09:58:15;;;;;;;10.52;2.10;;;;;13.80;100221.00;;;;5070604;28;20203;-77
2023/01/13 10:00:49;;;;;;;11.75;1.70;;;;;13.80;100227.00;;;;5064077;28;20218;-77
2023/01/13 10:03:24;;;;;;;5.50;1.55;;;;;13.80;100228.00;;;;5059873;28;20294;-77
2023/01/13 10:05:58;;;;;;;6.95;1.67;;;;;13.80;100220.00;;;;5060179;28;20202;-77
2023/01/13 10:08:28;;;;;;;5.13;1.20;;;;;13.80;100226.00;;;;5059958;28;20191;-77
2023/01/13 10:10:58;;;;;;;7.18;1.40;;;;;13.80;100224.00;;;;5061011;28;20522;-78
2023/01/13 10:13:26;;;;;;;9.95;1.90;;;;;13.80;100221.00;;;;5055722;28;20664;-77
2023/01/13 10:16:07;;;;;;;9.07;1.65;;;;;13.80;100223.00;;;;5054061;28;20199;-77
2023/01/13 10:18:44;;;;;;;7.82;1.35;;;;;13.80;100225.00;;;;5056317;28;20191;-77
2023/01/13 10:21:29;;;;;;;7.60;1.77;;;;;13.80;100229.00;;;;5060540;28;20195;-77
2023/01/13 10:24:02;;;;;;;6.53;1.80;;;;;13.90;100222.00;;;;5055985;28;20206;-78
2023/01/13 10:26:50;;;;;;;10.45;1.90;;;;;13.80;100232.00;;;;5047835;28;20573;-78
2023/01/13 10:29:24;;;;;;;8.30;1.60;;;;;13.90;100230.00;;;;5053895;28;20208;-78
2023/01/13 10:31:52;;;;;;;10.75;1.63;;;;;14.00;100233.00;;;;5053110;28;20558;-77
2023/01/13 10:34:22;;;;;;;11.02;2.10;;;;;14.00;100241.00;;;;5059593;28;20191;-77
2023/01/13 10:37:01;;;;;;;8.35;1.63;;;;;14.00;100250.00;;;;5050987;28;20223;-77
2023/01/13 10:39:38;;;;;;;9.13;1.25;;;;;14.10;100285.00;;;;5062357;28;20202;-77
2023/01/13 10:42:12;;;;;;;5.45;1.23;;;;;14.10;100277.00;;;;5068891;28;20201;-77
2023/01/13 10:44:48;;;;;;;6.15;1.05;;;;;14.00;100265.00;;;;5069581;28;20287;-77
2023/01/13 10:47:25;;;;;;;6.55;1.70;;;;;14.00;100278.00;;;;5067965;28;20191;-77
2023/01/13 10:50:04;;;;;;;7.95;1.30;;;;;14.00;100268.00;;;;5065673;28;20191;-78
2023/01/13 10:52:37;;;;;;;9.70;2.05;;;;;14.10;100268.00;;;;5061968;28;20195;-77
2023/01/13 10:55:23;;;;;;;7.47;1.52;;;;;14.10;100270.00;;;;5049620;28;20199;-77
2023/01/13 10:57:51;;;;;;;11.77;1.80;;;;;14.10;100283.00;;;;5050071;28;20223;-77
2023/01/13 11:00:28;;;;;;;10.55;2.00;;;;;14.00;100271.00;;;;5066395;28;20564;-77
2023/01/13 11:03:23;;;;;;;10.50;1.85;;;;;14.00;100282.00;;;;5058687;28;20203;-78
2023/01/13 11:05:54;;;;;;;6.70;1.30;;;;;14.10;100268.00;;;;5014931;28;20645;-77
2023/01/13 11:08:24;;;;;;;9.85;1.73;;;;;14.10;100278.00;;;;5049762;28;20253;-78
2023/01/13 11:10:53;;;;;;;9.48;2.05;;;;;14.10;100277.00;;;;5050082;28;20211;-78
2023/01/13 11:13:28;;;;;;;8.40;1.40;;;;;14.10;100285.00;;;;5050678;28;20214;-77
2023/01/13 11:16:00;;;;;;;9.57;1.92;;;;;14.20;100298.00;;;;5049990;28;20202;-77
2023/01/13 11:18:35;;;;;;;5.15;1.15;;;;;14.20;100278.00;;;;5049973;28;20233;-77
2023/01/13 11:21:08;;;;;;;9.50;1.55;;;;;14.20;100294.00;;;;5054680;28;20194;-77
2023/01/13 11:23:42;;;;;;;7.28;1.30;;;;;14.20;100293.00;;;;5055125;28;20196;-77
2023/01/13 11:26:14;;;;;;;6.20;1.88;;;;;14.30;100288.00;;;;5061792;28;20199;-77
2023/01/13 11:28:49;;;;;;;6.72;1.35;;;;;14.30;100295.00;;;;5054773;28;20195;-77
2023/01/13 11:31:23;;;;;;;5.82;0.90;;;;;14.30;100291.00;;;;5059882;28;20679;-77
2023/01/13 11:33:57;;;;;;;8.00;1.23;;;;;14.40;100300.00;;;;5058750;28;20218;-78
2023/01/13 11:36:31;;;;;;;3.92;1.10;;;;;14.40;100320.00;;;;5067892;28;20226;-77
2023/01/13 11:39:06;;;;;;;7.93;1.80;;;;;14.30;100299.00;;;;5046452;28;20463;-77
2023/01/13 11:41:43;;;;;;;10.95;1.45;;;;;14.40;100302.00;;;;5062689;28;20198;-77
2023/01/13 11:44:21;;;;;;;2.92;1.17;;;;;14.40;100305.00;;;;5069214;28;20649;-77
2023/01/13 11:46:50;;;;;;;9.50;1.10;;;;;14.50;100303.00;;;;5054569;28;20223;-77
2023/01/13 11:49:26;;;;;;;6.35;1.13;;;;;14.50;100306.00;;;;5048445;28;20199;-77
2023/01/13 11:52:00;;;;;;;7.60;1.20;;;;;14.50;100317.00;;;;5049752;28;20293;-77
2023/01/13 11:54:47;;;;;;;8.00;1.30;;;;;14.50;100326.00;;;;5048289;28;20192;-77
2023/01/13 11:57:51;;;;;;;8.73;1.30;;;;;14.40;100321.00;;;;5049421;28;20228;-78
2023/01/13 12:00:36;;;;;;;5.90;1.70;;;;;14.50;100335.00;;;;5048317;28;20241;-77
2023/01/13 12:03:24;;;;;;;9.18;1.40;;;;;14.50;100342.00;;;;5058350;28;20206;-77
2023/01/13 12:06:08;;;;;;;6.78;2.03;;;;;14.50;100335.00;;;;5060750;28;20195;-78
2023/01/13 12:08:51;;;;;;;10.35;2.13;;;;;14.40;100342.00;;;;5046993;28;20203;-77
2023/01/13 12:11:26;;;;;;;4.85;1.27;;;;;14.40;100351.00;;;;5054036;28;20206;-77
2023/01/13 12:14:16;;;;;;;7.22;1.60;;;;;14.30;100361.00;;;;5048387;28;20234;-77
2023/01/13 12:16:49;;;;;;;7.57;1.67;;;;;14.40;100358.00;;;;5051402;28;20568;-77
2023/01/13 12:19:24;;;;;;;8.75;1.45;;;;;14.40;100349.00;;;;5056142;28;20702;-77
2023/01/13 12:22:06;;;;;;;8.90;1.60;;;;;14.40;100352.00;;;;5054265;28;20207;-77
2023/01/13 12:24:40;;;;;;;6.55;1.77;;;;;14.40;100358.00;;;;5050843;28;20202;-77
2023/01/13 12:27:15;;;;;;;5.57;1.80;;;;;14.40;100347.00;;;;5054759;28;20198;-77
2023/01/13 12:29:43;;;;;;;7.80;1.30;;;;;14.50;100362.00;;;;5049707;28;20571;-77
2023/01/13 12:32:14;;;;;;;13.90;1.70;;;;;14.50;100362.00;;;;5062632;28;20199;-77
2023/01/13 12:34:56;;;;;;;7.97;1.25;;;;;14.50;100354.00;;;;5056030;28;20208;-77
2023/01/13 12:37:29;;;;;;;5.93;1.00;;;;;14.60;100347.00;;;;5068028;28;20241;-77
2023/01/13 12:40:12;;;;;;;7.38;1.70;;;;;14.70;100363.00;;;;5050950;28;20195;-77
2023/01/13 12:45:34;;;;;;;6.55;1.55;;;;;14.80;100366.00;;;;5050426;28;20223;-77
2023/01/13 12:48:01;;;;;;;6.25;0.95;;;;;14.80;100386.00;;;;5050900;28;20191;-78
2023/01/13 12:50:43;;;;;;;4.15;0.80;;;;;14.80;100379.00;;;;5047840;28;20580;-77
2023/01/13 12:53:33;;;;;;;6.65;1.10;;;;;14.70;100398.00;;;;5048161;28;20195;-77
2023/01/13 12:56:38;;;;;;;6.85;1.42;;;;;14.80;100390.00;;;;5056557;28;20227;-77
2023/01/13 12:59:47;;;;;;;5.35;0.98;;;;;14.70;100397.00;;;;5048379;28;20605;-77
2023/01/13 13:02:34;;;;;;;6.65;1.08;;;;;14.80;100389.00;;;;5046178;28;20199;-77
2023/01/13 13:05:34;;;;;;;3.80;0.80;;;;;14.80;100400.00;;;;5055620;28;20214;-77
2023/01/13 13:08:10;;;;;;;7.50;1.30;;;;;14.90;100400.00;;;;5042709;28;20223;-78
2023/01/13 13:10:42;;;;;;;7.30;1.10;;;;;14.90;100408.00;;;;5049406;28;20563;-77